Time;durP1;ratioP1;P1;durP2;ratioP2;P2;SDS_P1;SDS_P2;PMS_P1;PMS_P2;Temp;Humidity;BMP_temperature;BMP_pressure;BME280_temperature;BME280_humidity;BME280_pressure;Samples;Min_cycle;Max_cycle;Signal;HPM_P1;HPM_P2
2023/09/03 00:01:33;;;;;;;17.47;9.50;;;;;;;;;;5030799;28;20389;-60
2023/09/03 00:03:59;;;;;;;26.53;10.20;;;;;;;;;;5031511;28;20057;-60
2023/09/03 00:06:25;;;;;;;34.60;13.10;;;;;;;;;;5031573;28;20099;-60
2023/09/03 00:08:51;;;;;;;25.07;11.70;;;;;;;;;;5031604;28;20045;-60
2023/09/03 00:11:17;;;;;;;16.53;9.10;;;;;;;;;;5031595;28;20679;-60
2023/09/03 00:13:43;;;;;;;15.20;8.27;;;;;;;;;;5031058;28;20045;-60
2023/09/03 00:16:09;;;;;;;13.50;8.40;;;;;;;;;;5029878;28;20502;-60
2023/09/03 00:18:37;;;;;;;8.67;4.83;;;;;;;;;;5027510;28;20045;-60
2023/09/03 00:21:04;;;;;;;6.70;3.57;;;;;;;;;;5011222;28;20487;-60
2023/09/03 00:23:31;;;;;;;9.37;5.30;;;;;;;;;;5009415;28;20125;-61
2023/09/03 00:25:57;;;;;;;11.33;6.23;;;;;;;;;;5030502;28;20499;-60
2023/09/03 00:28:24;;;;;;;16.20;7.57;;;;;;;;;;5030214;28;20053;-60
2023/09/03 00:31:02;;;;;;;9.17;5.47;;;;;;;;;;5030509;28;20048;-60
2023/09/03 00:33:28;;;;;;;10.23;5.43;;;;;;;;;;5029181;28;20080;-60
2023/09/03 00:35:54;;;;;;;14.80;8.23;;;;;;;;;;5030828;28;20041;-60
2023/09/03 00:38:20;;;;;;;19.40;9.17;;;;;;;;;;5030381;28;20049;-60
2023/09/03 00:40:46;;;;;;;19.77;9.63;;;;;;;;;;5030254;28;20069;-60
2023/09/03 00:43:12;;;;;;;19.57;9.90;;;;;;;;;;5029019;28;20060;-61
2023/09/03 00:45:40;;;;;;;33.03;13.80;;;;;;;;;;5029854;28;20050;-60
2023/09/03 00:48:06;;;;;;;22.83;11.17;;;;;;;;;;5030090;28;20048;-60
2023/09/03 00:50:33;;;;;;;28.03;12.00;;;;;;;;;;5029121;28;20103;-60
2023/09/03 00:52:59;;;;;;;18.23;7.70;;;;;;;;;;5030108;28;20053;-60
2023/09/03 00:55:25;;;;;;;16.00;6.10;;;;;;;;;;5029577;28;20045;-60
2023/09/03 00:57:51;;;;;;;18.93;8.27;;;;;;;;;;5029974;28;20048;-60
2023/09/03 01:00:17;;;;;;;18.40;8.03;;;;;;;;;;5030177;28;20049;-60
2023/09/03 01:02:44;;;;;;;20.33;9.27;;;;;;;;;;5030215;28;20514;-60
2023/09/03 01:05:10;;;;;;;22.03;10.97;;;;;;;;;;5029191;28;20060;-60
2023/09/03 01:07:37;;;;;;;27.30;13.27;;;;;;;;;;5029997;28;20049;-60
2023/09/03 01:10:03;;;;;;;29.27;13.43;;;;;;;;;;5030042;28;20048;-60
2023/09/03 01:12:38;;;;;;;25.43;12.33;;;;;;;;;;5029625;28;20496;-59
2023/09/03 01:15:14;;;;;;;30.43;14.77;;;;;;;;;;5028886;28;20415;-60
2023/09/03 01:17:49;;;;;;;23.33;11.60;;;;;;;;;;5010181;28;20409;-60
2023/09/03 01:20:22;;;;;;;22.13;10.77;;;;;;;;;;5010069;28;20092;-60
2023/09/03 01:23:02;;;;;;;20.58;10.63;;;;;;;;;;5009873;28;20042;-60
2023/09/03 01:25:40;;;;;;;23.73;10.97;;;;;;;;;;5010104;28;20269;-60
2023/09/03 01:28:25;;;;;;;20.23;9.90;;;;;;;;;;5009583;28;20053;-60
2023/09/03 01:30:54;;;;;;;16.67;8.77;;;;;;;;;;5009086;28;20518;-60
2023/09/03 01:33:20;;;;;;;22.83;9.17;;;;;;;;;;5009679;28;20489;-60
2023/09/03 01:35:47;;;;;;;27.50;12.10;;;;;;;;;;5009373;28;20049;-60
2023/09/03 01:38:14;;;;;;;21.20;10.73;;;;;;;;;;5009562;28;20054;-60
2023/09/03 01:40:40;;;;;;;27.53;11.17;;;;;;;;;;5009274;28;20054;-60
2023/09/03 01:43:06;;;;;;;18.30;9.27;;;;;;;;;;5026179;28;20052;-60
2023/09/03 01:45:38;;;;;;;23.13;12.00;;;;;;;;;;5028641;28;20450;-60
2023/09/03 01:48:24;;;;;;;21.47;11.47;;;;;;;;;;5029101;28;20045;-60
2023/09/03 01:51:00;;;;;;;26.00;11.00;;;;;;;;;;5018038;28;20049;-61
2023/09/03 01:53:29;;;;;;;22.47;11.03;;;;;;;;;;5028760;28;20037;-60
2023/09/03 01:55:58;;;;;;;22.00;9.93;;;;;;;;;;5029017;28;20447;-60
2023/09/03 01:58:26;;;;;;;16.50;9.50;;;;;;;;;;5029281;28;20056;-60
2023/09/03 02:00:53;;;;;;;20.80;10.20;;;;;;;;;;5029160;28;20084;-60
2023/09/03 02:03:19;;;;;;;26.47;12.93;;;;;;;;;;5029147;28;20048;-60
2023/09/03 02:05:45;;;;;;;20.13;10.07;;;;;;;;;;5029096;28;20045;-60
2023/09/03 02:08:12;;;;;;;22.70;10.70;;;;;;;;;;5028688;28;20617;-60
2023/09/03 02:10:38;;;;;;;19.30;10.00;;;;;;;;;;5028000;28;20053;-60
2023/09/03 02:13:04;;;;;;;19.90;9.93;;;;;;;;;;5027687;28;20060;-60
2023/09/03 02:15:30;;;;;;;17.67;8.93;;;;;;;;;;5027426;28;20046;-60
2023/09/03 02:17:56;;;;;;;21.07;10.60;;;;;;;;;;5029130;28;20408;-60
2023/09/03 02:20:22;;;;;;;22.43;11.03;;;;;;;;;;5028371;28;20557;-60
2023/09/03 02:22:48;;;;;;;33.07;13.93;;;;;;;;;;5028470;28;20131;-60
2023/09/03 02:25:15;;;;;;;27.80;13.27;;;;;;;;;;5027691;28;20045;-60
2023/09/03 02:27:41;;;;;;;33.63;13.17;;;;;;;;;;5028676;28;20053;-60
2023/09/03 02:30:07;;;;;;;17.50;10.00;;;;;;;;;;5028206;28;20092;-60
2023/09/03 02:32:33;;;;;;;20.63;11.60;;;;;;;;;;5028713;28;20052;-60
2023/09/03 02:34:59;;;;;;;29.67;13.67;;;;;;;;;;5028384;28;20053;-60
2023/09/03 02:37:25;;;;;;;21.80;12.43;;;;;;;;;;5028124;28;20041;-60
2023/09/03 02:39:52;;;;;;;27.33;11.77;;;;;;;;;;5028043;28;20504;-60
2023/09/03 02:42:18;;;;;;;28.17;13.37;;;;;;;;;;5027791;28;20415;-60
2023/09/03 02:44:44;;;;;;;25.43;11.40;;;;;;;;;;5028265;28;20055;-60
2023/09/03 02:47:10;;;;;;;26.50;11.83;;;;;;;;;;5027777;28;20049;-60
2023/09/03 02:49:36;;;;;;;17.80;9.20;;;;;;;;;;5027732;28;20064;-60
2023/09/03 02:52:02;;;;;;;24.10;10.43;;;;;;;;;;5027974;28;20136;-60
2023/09/03 02:54:28;;;;;;;19.20;8.97;;;;;;;;;;5028065;28;20111;-60
2023/09/03 02:56:54;;;;;;;23.53;9.40;;;;;;;;;;5028340;28;20049;-60
2023/09/03 02:59:20;;;;;;;22.47;10.83;;;;;;;;;;5028211;28;20044;-60
2023/09/03 03:01:46;;;;;;;30.73;12.60;;;;;;;;;;5028147;28;20763;-60
2023/09/03 03:04:12;;;;;;;24.27;12.47;;;;;;;;;;5028245;28;20042;-60
2023/09/03 03:06:38;;;;;;;22.00;11.53;;;;;;;;;;5028006;28;20057;-61
2023/09/03 03:09:04;;;;;;;23.10;11.57;;;;;;;;;;5027824;28;20046;-60
2023/09/03 03:11:30;;;;;;;26.30;14.10;;;;;;;;;;5027017;28;20096;-60
2023/09/03 03:13:56;;;;;;;38.83;15.73;;;;;;;;;;5028136;28;20623;-60
2023/09/03 03:16:23;;;;;;;35.80;15.43;;;;;;;;;;5032370;28;20132;-60
2023/09/03 03:18:50;;;;;;;35.30;15.03;;;;;;;;;;5032325;28;20053;-60
2023/09/03 03:21:22;;;;;;;36.53;14.33;;;;;;;;;;5032057;28;20075;-60
2023/09/03 03:23:49;;;;;;;27.03;11.87;;;;;;;;;;5031849;28;20049;-60
2023/09/03 03:26:15;;;;;;;29.60;11.60;;;;;;;;;;5031918;28;20053;-60
2023/09/03 03:28:41;;;;;;;21.73;9.57;;;;;;;;;;5031996;28;20565;-60
2023/09/03 03:31:11;;;;;;;25.57;11.17;;;;;;;;;;5031996;28;20439;-60
2023/09/03 03:33:40;;;;;;;34.10;13.20;;;;;;;;;;5031733;28;20118;-60
2023/09/03 03:36:07;;;;;;;25.60;13.93;;;;;;;;;;5030790;28;20073;-60
2023/09/03 03:38:33;;;;;;;26.67;12.63;;;;;;;;;;5031813;28;20115;-60
2023/09/03 03:41:09;;;;;;;27.50;12.13;;;;;;;;;;5030911;28;20100;-60
2023/09/03 03:43:38;;;;;;;36.10;14.87;;;;;;;;;;5030711;28;20053;-60
2023/09/03 03:46:05;;;;;;;45.93;17.13;;;;;;;;;;5031672;28;20092;-60
2023/09/03 03:48:31;;;;;;;39.53;16.53;;;;;;;;;;5031441;28;20135;-60
2023/09/03 03:50:57;;;;;;;40.93;18.30;;;;;;;;;;5031327;28;20502;-60
2023/09/03 03:53:23;;;;;;;49.67;21.07;;;;;;;;;;5031317;28;20045;-60
2023/09/03 03:55:59;;;;;;;115.23;28.87;;;;;;;;;;5030780;28;20045;-60
2023/09/03 03:58:25;;;;;;;61.03;21.57;;;;;;;;;;5031500;28;20099;-60
2023/09/03 04:00:51;;;;;;;58.10;19.87;;;;;;;;;;5031034;28;20466;-60
2023/09/03 04:03:17;;;;;;;79.40;23.27;;;;;;;;;;5031520;28;20128;-60
2023/09/03 04:05:43;;;;;;;151.73;28.40;;;;;;;;;;5031090;28;20045;-60
2023/09/03 04:08:09;;;;;;;65.23;19.87;;;;;;;;;;5030696;28;20407;-60
2023/09/03 04:10:35;;;;;;;50.80;17.53;;;;;;;;;;5031361;28;20041;-60
2023/09/03 04:13:01;;;;;;;63.60;19.10;;;;;;;;;;5030316;28;20503;-60
2023/09/03 04:15:27;;;;;;;91.97;18.47;;;;;;;;;;5031256;28;20525;-60
2023/09/03 04:17:53;;;;;;;153.33;27.07;;;;;;;;;;5030225;28;20590;-60
2023/09/03 04:20:19;;;;;;;249.10;34.47;;;;;;;;;;5031207;28;20049;-60
2023/09/03 04:22:45;;;;;;;282.53;42.37;;;;;;;;;;5030960;28;20127;-61
2023/09/03 04:25:11;;;;;;;266.23;43.73;;;;;;;;;;5029786;28;20400;-60
2023/09/03 04:27:37;;;;;;;280.83;42.40;;;;;;;;;;5029541;28;20076;-60
2023/09/03 04:30:04;;;;;;;273.00;43.47;;;;;;;;;;5029931;28;20052;-59
2023/09/03 04:32:30;;;;;;;342.07;50.90;;;;;;;;;;5030675;28;20045;-60
2023/09/03 04:34:56;;;;;;;351.27;46.17;;;;;;;;;;5030851;28;20049;-60
2023/09/03 04:37:22;;;;;;;317.70;42.33;;;;;;;;;;5030463;28;20041;-61
2023/09/03 04:39:48;;;;;;;108.37;28.53;;;;;;;;;;5030462;28;20533;-60
2023/09/03 04:42:14;;;;;;;84.40;24.53;;;;;;;;;;5030795;28;20046;-60
2023/09/03 04:44:42;;;;;;;86.27;23.03;;;;;;;;;;5030635;28;20052;-60
2023/09/03 04:47:08;;;;;;;217.97;37.90;;;;;;;;;;5030369;28;20164;-60
2023/09/03 04:49:34;;;;;;;90.07;23.73;;;;;;;;;;5030245;28;20053;-60
2023/09/03 04:52:00;;;;;;;58.27;21.23;;;;;;;;;;5030449;28;20049;-59
2023/09/03 04:54:26;;;;;;;63.47;21.93;;;;;;;;;;5030653;28;20041;-60
2023/09/03 04:56:53;;;;;;;70.43;19.90;;;;;;;;;;5030119;28;20423;-60
2023/09/03 04:59:19;;;;;;;55.10;18.57;;;;;;;;;;5029797;28;20046;-60
2023/09/03 05:01:46;;;;;;;62.50;19.33;;;;;;;;;;5030765;28;20049;-60
2023/09/03 05:04:12;;;;;;;62.57;17.13;;;;;;;;;;5029471;28;20046;-60
2023/09/03 05:06:38;;;;;;;72.63;18.07;;;;;;;;;;5030099;28;20116;-60
2023/09/03 05:09:04;;;;;;;50.93;16.63;;;;;;;;;;5030009;28;20045;-60
2023/09/03 05:11:31;;;;;;;55.87;17.30;;;;;;;;;;5029980;28;20067;-60
2023/09/03 05:13:57;;;;;;;42.43;16.67;;;;;;;;;;5029917;28;20416;-60
2023/09/03 05:16:23;;;;;;;55.97;18.27;;;;;;;;;;5028411;28;20115;-60
2023/09/03 05:18:49;;;;;;;62.50;16.50;;;;;;;;;;5029475;28;20042;-60
2023/09/03 05:21:15;;;;;;;63.03;16.30;;;;;;;;;;5029475;28;20041;-60
2023/09/03 05:23:41;;;;;;;81.23;17.13;;;;;;;;;;5028598;28;20034;-60
2023/09/03 05:26:07;;;;;;;82.43;18.23;;;;;;;;;;5028040;28;20042;-60
2023/09/03 05:28:33;;;;;;;94.57;20.17;;;;;;;;;;5029148;28;20045;-60
2023/09/03 05:31:00;;;;;;;117.43;23.10;;;;;;;;;;5028600;28;20049;-60
2023/09/03 05:33:26;;;;;;;150.53;27.03;;;;;;;;;;5029544;28;20128;-60
2023/09/03 05:35:52;;;;;;;143.27;25.60;;;;;;;;;;5029455;28;20172;-60
2023/09/03 05:38:18;;;;;;;110.77;24.20;;;;;;;;;;5028538;28;20041;-60
2023/09/03 05:40:44;;;;;;;120.40;25.10;;;;;;;;;;5029398;28;20057;-60
2023/09/03 05:43:10;;;;;;;103.40;23.27;;;;;;;;;;5029382;28;20057;-60
2023/09/03 05:45:42;;;;;;;80.90;21.23;;;;;;;;;;5028918;28;20052;-60
2023/09/03 05:48:08;;;;;;;73.57;19.97;;;;;;;;;;5029380;28;20092;-61
2023/09/03 05:50:34;;;;;;;72.37;20.30;;;;;;;;;;5026172;28;20045;-60
2023/09/03 05:53:00;;;;;;;42.20;20.10;;;;;;;;;;5028354;28;20093;-61
2023/09/03 05:55:26;;;;;;;44.43;19.97;;;;;;;;;;5029639;28;20045;-61
2023/09/03 05:57:55;;;;;;;60.77;25.60;;;;;;;;;;5029086;28;20041;-60
2023/09/03 06:00:21;;;;;;;49.33;22.37;;;;;;;;;;5029099;28;20052;-60
2023/09/03 06:02:48;;;;;;;37.70;20.00;;;;;;;;;;5028959;28;20037;-59
2023/09/03 06:05:14;;;;;;;53.47;23.67;;;;;;;;;;5027138;28;20050;-60
2023/09/03 06:07:40;;;;;;;43.80;22.53;;;;;;;;;;5028955;28;20034;-60
2023/09/03 06:10:07;;;;;;;43.77;21.07;;;;;;;;;;5028639;28;20081;-60
2023/09/03 06:12:33;;;;;;;45.10;23.40;;;;;;;;;;5028439;28;20050;-59
2023/09/03 06:14:59;;;;;;;27.10;17.03;;;;;;;;;;5028592;28;20053;-60
2023/09/03 06:17:25;;;;;;;37.57;19.77;;;;;;;;;;5027913;28;20429;-60
2023/09/03 06:19:51;;;;;;;38.47;21.00;;;;;;;;;;5027035;28;20047;-60
2023/09/03 06:22:17;;;;;;;34.87;19.00;;;;;;;;;;5028338;28;20561;-60
2023/09/03 06:24:43;;;;;;;37.23;21.23;;;;;;;;;;5028741;28;20049;-60
2023/09/03 06:27:09;;;;;;;36.30;19.97;;;;;;;;;;5027927;28;20037;-60
2023/09/03 06:29:35;;;;;;;37.30;20.57;;;;;;;;;;5028416;28;20087;-60
2023/09/03 06:32:01;;;;;;;39.03;20.83;;;;;;;;;;5027527;28;20044;-61
2023/09/03 06:34:27;;;;;;;39.27;19.77;;;;;;;;;;5026694;28;20052;-61
2023/09/03 06:36:53;;;;;;;41.07;20.47;;;;;;;;;;5026404;28;20092;-60
2023/09/03 06:39:19;;;;;;;39.67;21.07;;;;;;;;;;5027891;28;20049;-60
2023/09/03 06:41:45;;;;;;;43.73;22.37;;;;;;;;;;5027525;28;20053;-60
2023/09/03 06:44:12;;;;;;;29.20;19.30;;;;;;;;;;5027671;28;20049;-60
2023/09/03 06:46:38;;;;;;;35.73;20.37;;;;;;;;;;5029848;28;20053;-60
2023/09/03 06:49:04;;;;;;;15.33;11.03;;;;;;;;;;5030882;28;20051;-60
2023/09/03 06:51:30;;;;;;;27.73;18.60;;;;;;;;;;5041179;28;20037;-60
2023/09/03 06:53:56;;;;;;;31.37;17.60;;;;;;;;;;5047986;28;20048;-60
2023/09/03 06:56:23;;;;;;;25.77;16.97;;;;;;;;;;5029734;28;20088;-60
2023/09/03 06:58:49;;;;;;;32.17;18.50;;;;;;;;;;5038867;28;20491;-60
2023/09/03 07:01:17;;;;;;;26.80;17.53;;;;;;;;;;5035301;28;20041;-60
2023/09/03 07:03:43;;;;;;;28.63;18.37;;;;;;;;;;5027626;28;20053;-60
2023/09/03 07:06:09;;;;;;;28.50;17.47;;;;;;;;;;5027407;28;20391;-60
2023/09/03 07:08:35;;;;;;;31.87;18.47;;;;;;;;;;5027500;28;20114;-60
2023/09/03 07:11:01;;;;;;;27.13;17.47;;;;;;;;;;5035985;28;20498;-60
2023/09/03 07:13:27;;;;;;;23.73;16.63;;;;;;;;;;5032209;28;20052;-60
2023/09/03 07:15:53;;;;;;;26.83;17.70;;;;;;;;;;5026998;28;20038;-60
2023/09/03 07:18:19;;;;;;;28.57;18.53;;;;;;;;;;5027034;28;20045;-60
2023/09/03 07:20:45;;;;;;;24.83;17.20;;;;;;;;;;5027064;28;20049;-60
2023/09/03 07:23:11;;;;;;;23.53;17.30;;;;;;;;;;5025524;28;20045;-60
2023/09/03 07:25:37;;;;;;;27.57;17.93;;;;;;;;;;5027573;28;20597;-60
2023/09/03 07:28:03;;;;;;;24.83;16.97;;;;;;;;;;5027659;28;20103;-60
2023/09/03 07:30:29;;;;;;;20.37;15.90;;;;;;;;;;5027226;28;20125;-61
2023/09/03 07:32:56;;;;;;;23.73;17.60;;;;;;;;;;5026614;28;20042;-60
2023/09/03 07:35:22;;;;;;;24.20;14.23;;;;;;;;;;5026790;28;20053;-60
2023/09/03 07:37:48;;;;;;;22.07;16.80;;;;;;;;;;5027543;28;20049;-60
2023/09/03 07:40:14;;;;;;;25.37;18.57;;;;;;;;;;5025894;28;20413;-60
2023/09/03 07:42:40;;;;;;;24.57;18.90;;;;;;;;;;5026928;28;20053;-60
2023/09/03 07:45:06;;;;;;;24.03;18.43;;;;;;;;;;5026012;28;20052;-61
2023/09/03 07:47:32;;;;;;;23.83;18.63;;;;;;;;;;5027898;28;20041;-60
2023/09/03 07:49:58;;;;;;;22.37;17.33;;;;;;;;;;5026470;28;20527;-60
2023/09/03 07:52:24;;;;;;;20.40;16.93;;;;;;;;;;5026755;28;20049;-60
2023/09/03 07:54:50;;;;;;;20.20;16.43;;;;;;;;;;5026690;28;20048;-61
2023/09/03 07:57:16;;;;;;;23.43;16.33;;;;;;;;;;5027283;28;20471;-60
2023/09/03 07:59:42;;;;;;;18.43;16.23;;;;;;;;;;5026649;28;20132;-61
2023/09/03 08:02:08;;;;;;;18.93;15.30;;;;;;;;;;5030981;28;20207;-60
2023/09/03 08:04:34;;;;;;;26.57;15.00;;;;;;;;;;5030454;28;20303;-61
2023/09/03 08:07:00;;;;;;;15.50;12.77;;;;;;;;;;5029145;28;20041;-61
2023/09/03 08:09:27;;;;;;;19.50;12.33;;;;;;;;;;5030173;28;20046;-61
2023/09/03 08:11:53;;;;;;;18.43;12.37;;;;;;;;;;5029860;28;20049;-62
2023/09/03 08:14:20;;;;;;;18.20;12.77;;;;;;;;;;5030750;28;20053;-61
2023/09/03 08:16:46;;;;;;;12.43;9.63;;;;;;;;;;5028414;28;20128;-61
2023/09/03 08:19:12;;;;;;;13.67;9.47;;;;;;;;;;5029907;28;20132;-61
2023/09/03 08:21:38;;;;;;;11.30;8.23;;;;;;;;;;5030103;28;20045;-60
2023/09/03 08:24:04;;;;;;;9.47;4.80;;;;;;;;;;5029597;28;20046;-61
2023/09/03 08:26:30;;;;;;;9.73;5.90;;;;;;;;;;5024194;28;20045;-60
2023/09/03 08:28:56;;;;;;;9.67;6.00;;;;;;;;;;5033115;28;20083;-61
2023/09/03 08:31:22;;;;;;;10.83;6.57;;;;;;;;;;5036928;28;20053;-61
2023/09/03 08:33:53;;;;;;;10.60;6.50;;;;;;;;;;5037977;28;20041;-60
2023/09/03 08:36:19;;;;;;;11.70;7.57;;;;;;;;;;5035504;28;20380;-61
2023/09/03 08:38:45;;;;;;;8.70;6.40;;;;;;;;;;5031466;28;20041;-61
2023/09/03 08:41:11;;;;;;;8.53;5.60;;;;;;;;;;5029957;28;20466;-61
2023/09/03 08:43:38;;;;;;;8.70;5.87;;;;;;;;;;5042069;28;20083;-61
2023/09/03 08:46:11;;;;;;;7.60;5.73;;;;;;;;;;5050812;28;20136;-61
2023/09/03 08:48:37;;;;;;;7.57;5.40;;;;;;;;;;5047204;28;20053;-60
2023/09/03 08:51:03;;;;;;;8.00;5.20;;;;;;;;;;5029817;28;20121;-60
2023/09/03 08:53:31;;;;;;;8.13;5.83;;;;;;;;;;5028905;28;20068;-60
2023/09/03 08:55:57;;;;;;;6.77;5.23;;;;;;;;;;5029729;28;20372;-61
2023/09/03 08:58:23;;;;;;;6.30;4.70;;;;;;;;;;5030416;28;20045;-61
2023/09/03 09:00:49;;;;;;;6.47;4.67;;;;;;;;;;5028688;28;20038;-61
2023/09/03 09:03:17;;;;;;;8.57;4.67;;;;;;;;;;5028891;28;20606;-60
2023/09/03 09:05:45;;;;;;;7.70;5.10;;;;;;;;;;5030084;28;20068;-60
2023/09/03 09:08:11;;;;;;;5.67;3.90;;;;;;;;;;5029586;28;20053;-61
2023/09/03 09:10:43;;;;;;;6.17;4.60;;;;;;;;;;5028184;28;20041;-61
2023/09/03 09:13:11;;;;;;;6.97;4.95;;;;;;;;;;5028827;28;20560;-60
2023/09/03 09:15:42;;;;;;;9.57;5.03;;;;;;;;;;5029423;28;20051;-61
2023/09/03 09:18:09;;;;;;;9.17;4.97;;;;;;;;;;5028357;28;20041;-61
2023/09/03 09:20:37;;;;;;;4.93;3.30;;;;;;;;;;5028089;28;20091;-61
2023/09/03 09:23:03;;;;;;;4.67;3.90;;;;;;;;;;5029875;28;20470;-60
2023/09/03 09:25:29;;;;;;;5.23;3.70;;;;;;;;;;5028574;28;20071;-59
2023/09/03 09:27:56;;;;;;;7.23;4.30;;;;;;;;;;5029141;28;20045;-61
2023/09/03 09:30:25;;;;;;;6.97;3.23;;;;;;;;;;5029194;28;20589;-61
2023/09/03 09:33:03;;;;;;;5.50;3.53;;;;;;;;;;5028529;28;20116;-60
2023/09/03 09:35:29;;;;;;;7.37;3.20;;;;;;;;;;5027319;28;20049;-61
2023/09/03 09:37:55;;;;;;;5.00;3.17;;;;;;;;;;5028462;28;20544;-60
2023/09/03 09:40:29;;;;;;;5.97;3.87;;;;;;;;;;5028941;28;20081;-61
2023/09/03 09:42:59;;;;;;;6.27;4.03;;;;;;;;;;5029048;28;20665;-61
2023/09/03 09:45:25;;;;;;;5.70;3.70;;;;;;;;;;5029091;28;20144;-61
2023/09/03 09:48:04;;;;;;;4.33;2.20;;;;;;;;;;5028406;28;20385;-61
2023/09/03 09:50:36;;;;;;;5.97;2.30;;;;;;;;;;5028299;28;20042;-60
2023/09/03 09:53:02;;;;;;;;;;;;;;;;;;5026970;28;20115;-60
2023/09/03 09:55:31;;;;;;;4.10;2.27;;;;;;;;;;5028164;28;20391;-60
2023/09/03 09:57:57;;;;;;;5.23;2.30;;;;;;;;;;5027548;28;20107;-61
2023/09/03 10:00:36;;;;;;;6.20;2.20;;;;;;;;;;5026846;28;20042;-61
2023/09/03 10:03:04;;;;;;;5.47;2.43;;;;;;;;;;5026888;28;20666;-61
2023/09/03 10:05:30;;;;;;;4.47;1.67;;;;;;;;;;5026885;28;20095;-61
2023/09/03 10:07:56;;;;;;;3.50;2.20;;;;;;;;;;5026113;28;20053;-61
2023/09/03 10:10:22;;;;;;;5.47;2.20;;;;;;;;;;5026783;28;20357;-60
2023/09/03 10:12:48;;;;;;;3.87;2.33;;;;;;;;;;5027586;28;20049;-61
2023/09/03 10:15:14;;;;;;;3.80;2.15;;;;;;;;;;5028470;28;20076;-61
2023/09/03 10:17:41;;;;;;;5.67;2.10;;;;;;;;;;5028494;28;20057;-60
2023/09/03 10:20:10;;;;;;;5.78;2.00;;;;;;;;;;5027739;28;20405;-60
2023/09/03 10:22:37;;;;;;;3.42;2.25;;;;;;;;;;5028375;28;20098;-60
2023/09/03 10:25:09;;;;;;;3.38;2.08;;;;;;;;;;5028346;28;20504;-60
2023/09/03 10:27:37;;;;;;;3.80;2.30;;;;;;;;;;5028205;28;20053;-61
2023/09/03 10:30:05;;;;;;;4.50;2.03;;;;;;;;;;5028398;28;20041;-61
2023/09/03 10:32:32;;;;;;;4.78;2.35;;;;;;;;;;5027945;28;20037;-61
2023/09/03 10:34:58;;;;;;;5.68;3.00;;;;;;;;;;5027992;28;20048;-61
2023/09/03 10:37:44;;;;;;;4.00;2.17;;;;;;;;;;5028411;28;20046;-61
2023/09/03 10:40:23;;;;;;;4.43;1.95;;;;;;;;;;5027759;28;20416;-61
2023/09/03 10:42:50;;;;;;;4.05;1.80;;;;;;;;;;5028074;28;20053;-61
2023/09/03 10:45:16;;;;;;;3.47;1.70;;;;;;;;;;5027566;28;20049;-61
2023/09/03 10:48:01;;;;;;;4.20;2.20;;;;;;;;;;5028050;28;20065;-61
2023/09/03 10:50:48;;;;;;;4.28;2.15;;;;;;;;;;5027991;28;20717;-60
2023/09/03 10:53:32;;;;;;;3.45;1.48;;;;;;;;;;5027355;28;20041;-60
2023/09/03 10:56:12;;;;;;;2.97;2.00;;;;;;;;;;5027787;28;20045;-60
2023/09/03 10:58:54;;;;;;;4.30;2.00;;;;;;;;;;5027801;28;20112;-60
2023/09/03 11:01:28;;;;;;;6.28;2.60;;;;;;;;;;5027628;28;20037;-60
2023/09/03 11:03:55;;;;;;;3.72;1.77;;;;;;;;;;5027954;28;20061;-60
2023/09/03 11:06:22;;;;;;;4.82;2.45;;;;;;;;;;5027669;28;20056;-61
2023/09/03 11:09:04;;;;;;;4.18;1.40;;;;;;;;;;5027508;28;20048;-61
2023/09/03 11:11:33;;;;;;;4.38;1.90;;;;;;;;;;5027338;28;20057;-60
2023/09/03 11:14:00;;;;;;;3.22;1.50;;;;;;;;;;5027588;28;20091;-61
2023/09/03 11:16:36;;;;;;;4.03;1.75;;;;;;;;;;5027612;28;20092;-60
2023/09/03 11:19:04;;;;;;;3.15;1.90;;;;;;;;;;5027570;28;20056;-60
2023/09/03 11:21:30;;;;;;;5.63;2.20;;;;;;;;;;5027402;28;20457;-61
2023/09/03 11:24:00;;;;;;;2.97;1.80;;;;;;;;;;5027454;28;20467;-61
2023/09/03 11:26:26;;;;;;;4.07;1.88;;;;;;;;;;5027616;28;20481;-61
2023/09/03 11:28:52;;;;;;;3.10;1.85;;;;;;;;;;5027940;28;20051;-60
2023/09/03 11:31:19;;;;;;;3.53;1.45;;;;;;;;;;5027046;28;20050;-60
2023/09/03 11:33:45;;;;;;;4.07;1.77;;;;;;;;;;5027636;28;20053;-61
2023/09/03 11:36:11;;;;;;;2.97;1.70;;;;;;;;;;5030081;28;20057;-61
2023/09/03 11:38:37;;;;;;;3.38;1.60;;;;;;;;;;5031544;28;20045;-61
2023/09/03 11:41:03;;;;;;;3.95;1.58;;;;;;;;;;5031571;28;20442;-61
2023/09/03 11:43:30;;;;;;;3.20;1.33;;;;;;;;;;5031385;28;20075;-61
2023/09/03 11:45:56;;;;;;;3.78;1.50;;;;;;;;;;5030915;28;20118;-61
2023/09/03 11:48:26;;;;;;;3.42;1.75;;;;;;;;;;5031363;28;20045;-61
2023/09/03 11:50:52;;;;;;;2.75;1.50;;;;;;;;;;5031220;28;20096;-61
2023/09/03 11:53:18;;;;;;;3.03;1.40;;;;;;;;;;5030754;28;20051;-61
2023/09/03 11:55:50;;;;;;;2.80;1.30;;;;;;;;;;5031457;28;20041;-61
2023/09/03 11:58:19;;;;;;;3.83;1.67;;;;;;;;;;5030804;28;20538;-61
2023/09/03 12:00:45;;;;;;;3.05;1.45;;;;;;;;;;5029432;28;20073;-61
2023/09/03 12:03:11;;;;;;;3.67;1.40;;;;;;;;;;5029997;28;20408;-60
2023/09/03 12:05:37;;;;;;;3.00;1.27;;;;;;;;;;5029837;28;20551;-61
2023/09/03 12:08:04;;;;;;;3.03;1.30;;;;;;;;;;5030929;28;20045;-61
2023/09/03 12:10:34;;;;;;;2.47;1.20;;;;;;;;;;5030900;28;20499;-61
2023/09/03 12:13:01;;;;;;;3.17;1.60;;;;;;;;;;5030961;28;20530;-60
2023/09/03 12:15:29;;;;;;;2.95;1.27;;;;;;;;;;5030497;28;20084;-61
2023/09/03 12:18:05;;;;;;;3.60;1.67;;;;;;;;;;5030866;28;20046;-61
2023/09/03 12:20:44;;;;;;;3.03;1.15;;;;;;;;;;5030816;28;20049;-61
2023/09/03 12:23:11;;;;;;;2.63;1.15;;;;;;;;;;5030624;28;20527;-61
2023/09/03 12:25:37;;;;;;;2.65;1.23;;;;;;;;;;5030070;28;20060;-61
2023/09/03 12:28:04;;;;;;;3.58;1.20;;;;;;;;;;5030387;28;20091;-61
2023/09/03 12:30:48;;;;;;;2.78;1.30;;;;;;;;;;5030696;28;20065;-61
2023/09/03 12:33:14;;;;;;;2.58;1.20;;;;;;;;;;5030385;28;20068;-61
2023/09/03 12:35:40;;;;;;;3.75;1.40;;;;;;;;;;5030174;28;20049;-61
2023/09/03 12:38:06;;;;;;;2.25;1.30;;;;;;;;;;5030677;28;20076;-61
2023/09/03 12:40:33;;;;;;;3.20;1.33;;;;;;;;;;5029484;28;20108;-61
2023/09/03 12:42:59;;;;;;;2.58;1.23;;;;;;;;;;5030020;28;20598;-61
2023/09/03 12:45:25;;;;;;;3.13;1.42;;;;;;;;;;5030067;28;20088;-61
2023/09/03 12:47:51;;;;;;;2.53;1.42;;;;;;;;;;5028746;28;20512;-61
2023/09/03 12:50:17;;;;;;;3.35;1.05;;;;;;;;;;5030227;28;20037;-61
2023/09/03 12:52:43;;;;;;;2.90;1.40;;;;;;;;;;5029895;28;20049;-61
2023/09/03 12:55:09;;;;;;;3.03;1.10;;;;;;;;;;5029605;28;20061;-61
2023/09/03 12:57:35;;;;;;;2.00;1.00;;;;;;;;;;5030235;28;20053;-61
2023/09/03 13:00:04;;;;;;;2.60;1.30;;;;;;;;;;5029635;28;20111;-61
2023/09/03 13:02:30;;;;;;;2.22;1.00;;;;;;;;;;5030005;28;20049;-61
2023/09/03 13:04:56;;;;;;;2.75;1.52;;;;;;;;;;5029994;28;20081;-61
2023/09/03 13:07:22;;;;;;;2.58;1.10;;;;;;;;;;5029801;28;20069;-61
2023/09/03 13:09:48;;;;;;;1.60;0.95;;;;;;;;;;5029540;28;20041;-61
2023/09/03 13:12:14;;;;;;;2.22;1.00;;;;;;;;;;5029599;28;20041;-61
2023/09/03 13:14:40;;;;;;;2.50;1.00;;;;;;;;;;5029763;28;20041;-60
2023/09/03 13:17:06;;;;;;;2.25;1.10;;;;;;;;;;5029641;28;20407;-61
2023/09/03 13:19:32;;;;;;;3.13;1.23;;;;;;;;;;5029340;28;20034;-61
2023/09/03 13:21:58;;;;;;;6.35;1.45;;;;;;;;;;5029059;28;20053;-61
2023/09/03 13:24:24;;;;;;;1.95;1.20;;;;;;;;;;5029617;28;20060;-61
2023/09/03 13:26:51;;;;;;;1.15;0.65;;;;;;;;;;5029244;28;20057;-61
2023/09/03 13:29:17;;;;;;;1.83;0.90;;;;;;;;;;5029380;28;20049;-61
2023/09/03 13:31:43;;;;;;;1.95;1.13;;;;;;;;;;5029611;28;20041;-61
2023/09/03 13:34:09;;;;;;;1.88;0.80;;;;;;;;;;5029219;28;20553;-61
2023/09/03 13:36:35;;;;;;;2.00;1.17;;;;;;;;;;5028958;28;20091;-61
2023/09/03 13:39:01;;;;;;;2.30;1.15;;;;;;;;;;5029196;28;20088;-61
2023/09/03 13:41:27;;;;;;;1.40;0.77;;;;;;;;;;5029139;28;20053;-61
2023/09/03 13:43:53;;;;;;;3.55;1.20;;;;;;;;;;5028932;28;20050;-61
2023/09/03 13:46:21;;;;;;;1.77;0.80;;;;;;;;;;5028928;28;20128;-61
2023/09/03 13:48:48;;;;;;;2.80;1.15;;;;;;;;;;5029158;28;20133;-61
2023/09/03 13:51:15;;;;;;;1.67;0.95;;;;;;;;;;5027671;28;20523;-61
2023/09/03 13:53:41;;;;;;;1.67;0.95;;;;;;;;;;5028802;28;20053;-61
2023/09/03 13:56:07;;;;;;;3.30;1.10;;;;;;;;;;5029061;28;20041;-61
2023/09/03 13:58:33;;;;;;;2.20;0.93;;;;;;;;;;5028912;28;20045;-61
2023/09/03 14:01:00;;;;;;;2.30;0.80;;;;;;;;;;5029106;28;20060;-60
2023/09/03 14:03:26;;;;;;;1.70;0.90;;;;;;;;;;5029078;28;20041;-61
2023/09/03 14:05:52;;;;;;;1.95;0.60;;;;;;;;;;5028453;28;20064;-61
2023/09/03 14:08:18;;;;;;;2.78;0.90;;;;;;;;;;5028916;28;20045;-60
2023/09/03 14:10:44;;;;;;;2.15;1.13;;;;;;;;;;5028720;28;20123;-61
2023/09/03 14:13:10;;;;;;;1.75;0.82;;;;;;;;;;5028107;28;20042;-61
2023/09/03 14:15:36;;;;;;;1.63;0.88;;;;;;;;;;5028761;28;20049;-61
2023/09/03 14:18:02;;;;;;;2.40;0.95;;;;;;;;;;5028607;28;20045;-60
2023/09/03 14:20:28;;;;;;;2.28;1.00;;;;;;;;;;5028395;28;20099;-61
2023/09/03 14:22:54;;;;;;;3.33;1.08;;;;;;;;;;5028661;28;20045;-61
2023/09/03 14:25:20;;;;;;;2.17;0.90;;;;;;;;;;5028299;28;20087;-61
2023/09/03 14:27:46;;;;;;;1.77;0.80;;;;;;;;;;5027998;28;20132;-60
2023/09/03 14:30:12;;;;;;;2.65;0.90;;;;;;;;;;5028047;28;20159;-60